Time;durP1;ratioP1;P1;durP2;ratioP2;P2;SDS_P1;SDS_P2;PMS_P1;PMS_P2;Temp;Humidity;BMP_temperature;BMP_pressure;BME280_temperature;BME280_humidity;BME280_pressure;Samples;Min_cycle;Max_cycle;Signal;HPM_P1;HPM_P2
2022/10/20 00:02:00;;;;;;;9.50;6.25;;;9.00;99.90;;;;;;5053032;28;20202;-73
2022/10/20 00:04:29;;;;;;;7.22;4.28;;;9.00;99.90;;;;;;5054725;28;20199;-71
2022/10/20 00:06:56;;;;;;;11.40;4.40;;;9.00;99.90;;;;;;5046666;28;20200;-72
2022/10/20 00:09:23;;;;;;;7.93;4.57;;;9.00;99.90;;;;;;5050112;28;20314;-74
2022/10/20 00:11:50;;;;;;;6.18;4.47;;;9.00;99.90;;;;;;5042815;28;20235;-74
2022/10/20 00:14:17;;;;;;;5.97;4.63;;;9.00;99.90;;;;;;5047239;28;20287;-74
2022/10/20 00:16:44;;;;;;;5.55;3.90;;;9.00;99.90;;;;;;5049663;28;20279;-74
2022/10/20 00:19:12;;;;;;;7.68;4.38;;;9.00;99.90;;;;;;5050921;28;20255;-76
2022/10/20 00:21:39;;;;;;;8.20;4.65;;;8.90;99.90;;;;;;5046408;28;20210;-70
2022/10/20 00:24:08;;;;;;;5.80;3.80;;;8.90;99.90;;;;;;5046079;28;20203;-70
2022/10/20 00:26:35;;;;;;;9.27;4.20;;;8.90;99.90;;;;;;5041476;28;20258;-74
2022/10/20 00:29:04;;;;;;;6.72;4.65;;;8.90;99.90;;;;;;5045890;28;20306;-73
2022/10/20 00:31:31;;;;;;;5.43;4.40;;;8.90;99.90;;;;;;5044332;28;20230;-74
2022/10/20 00:33:58;;;;;;;9.35;4.28;;;8.80;99.90;;;;;;5052767;28;20291;-71
2022/10/20 00:36:27;;;;;;;5.97;4.45;;;8.90;99.90;;;;;;5050409;28;20286;-74
2022/10/20 00:38:59;;;;;;;8.85;4.55;;;8.80;99.90;;;;;;5043580;28;20276;-72
2022/10/20 00:41:26;;;;;;;5.05;3.78;;;8.90;99.90;;;;;;5057452;28;20295;-73
2022/10/20 00:43:56;;;;;;;6.50;3.92;;;8.80;99.90;;;;;;5053982;28;20242;-73
2022/10/20 00:46:25;;;;;;;5.18;3.85;;;8.80;99.90;;;;;;5062952;28;20213;-71
2022/10/20 00:48:55;;;;;;;8.02;5.88;;;8.80;99.90;;;;;;5054433;28;20258;-74
2022/10/20 00:51:25;;;;;;;7.28;3.65;;;8.80;99.90;;;;;;5052751;28;20235;-73
2022/10/20 00:53:57;;;;;;;5.03;3.28;;;8.80;99.90;;;;;;5048182;28;20231;-72
2022/10/20 00:56:24;;;;;;;12.55;3.95;;;8.80;99.90;;;;;;5055697;28;20217;-74
2022/10/20 00:58:52;;;;;;;10.20;4.00;;;8.80;99.90;;;;;;5050489;28;20306;-71
2022/10/20 01:01:19;;;;;;;6.50;3.60;;;8.70;99.90;;;;;;5048861;28;20694;-74
2022/10/20 01:03:49;;;;;;;3.90;3.60;;;8.80;99.90;;;;;;5047576;28;20729;-75
2022/10/20 01:06:19;;;;;;;5.82;3.25;;;8.90;99.90;;;;;;5051616;28;20290;-74
2022/10/20 01:08:46;;;;;;;4.68;3.13;;;8.70;99.90;;;;;;5052915;28;20227;-73
2022/10/20 01:11:30;;;;;;;6.53;3.58;;;8.80;99.90;;;;;;5053463;28;20202;-73
2022/10/20 01:14:18;;;;;;;9.98;4.18;;;8.80;99.90;;;;;;5046239;28;20200;-74
2022/10/20 01:16:55;;;;;;;7.18;3.22;;;8.70;99.90;;;;;;5053022;28;20295;-71
2022/10/20 01:20:02;;;;;;;5.07;3.60;;;8.80;99.90;;;;;;5046144;28;20228;-73
2022/10/20 01:22:48;;;;;;;6.30;3.78;;;8.70;99.90;;;;;;5046217;28;20292;-69
2022/10/20 01:25:20;;;;;;;6.30;3.85;;;8.70;99.90;;;;;;5048495;28;20298;-72
2022/10/20 01:27:55;;;;;;;5.55;3.65;;;8.70;99.90;;;;;;5051754;28;20315;-73
2022/10/20 01:30:23;;;;;;;4.95;3.45;;;8.70;99.90;;;;;;5047132;28;20306;-73
2022/10/20 01:32:59;;;;;;;9.55;5.00;;;8.70;99.90;;;;;;5058360;28;20215;-70
2022/10/20 01:35:38;;;;;;;13.38;8.13;;;8.70;99.90;;;;;;5052326;28;20226;-72
2022/10/20 01:38:11;;;;;;;11.07;6.90;;;8.70;99.90;;;;;;5054642;28;20247;-73
2022/10/20 01:40:43;;;;;;;16.67;6.47;;;8.70;99.90;;;;;;5056442;28;20665;-73
2022/10/20 01:43:15;;;;;;;11.48;6.00;;;8.70;99.90;;;;;;5058663;28;20200;-71
2022/10/20 01:45:46;;;;;;;16.17;5.75;;;8.70;99.90;;;;;;5068424;28;20290;-70
2022/10/20 01:48:16;;;;;;;21.42;5.80;;;8.70;99.90;;;;;;5065068;28;20247;-71
2022/10/20 01:50:45;;;;;;;20.98;7.13;;;8.70;99.90;;;;;;5074961;28;20263;-71
2022/10/20 01:53:15;;;;;;;10.18;4.00;;;8.70;99.90;;;;;;5067443;28;20235;-73
2022/10/20 01:55:42;;;;;;;5.43;3.40;;;8.70;99.90;;;;;;5047265;28;20299;-73
2022/10/20 01:58:42;;;;;;;4.30;3.28;;;8.70;99.90;;;;;;5055376;28;20287;-72
2022/10/20 02:01:17;;;;;;;6.40;3.75;;;8.60;99.90;;;;;;5054792;28;20283;-75
2022/10/20 02:03:53;;;;;;;5.40;4.10;;;8.60;99.90;;;;;;5055888;28;20199;-73
2022/10/20 02:06:34;;;;;;;5.93;3.63;;;8.60;99.90;;;;;;5054192;28;20203;-73
2022/10/20 02:09:05;;;;;;;4.32;2.92;;;8.60;99.90;;;;;;5045322;28;20318;-72
2022/10/20 02:11:41;;;;;;;7.55;3.83;;;8.60;99.90;;;;;;5053642;28;20207;-74
2022/10/20 02:14:11;;;;;;;3.13;2.83;;;8.50;99.90;;;;;;5051920;28;20199;-72
2022/10/20 02:16:43;;;;;;;6.40;3.30;;;8.50;99.90;;;;;;5061354;28;20226;-74
2022/10/20 02:19:13;;;;;;;6.40;3.20;;;8.50;99.90;;;;;;5063774;28;20219;-71
2022/10/20 02:21:40;;;;;;;7.22;3.20;;;8.50;99.90;;;;;;5062388;28;20290;-71
2022/10/20 02:24:09;;;;;;;5.18;3.15;;;8.50;99.90;;;;;;5054836;28;20200;-71
2022/10/20 02:26:39;;;;;;;5.88;3.08;;;8.50;99.90;;;;;;5059132;28;20214;-70
2022/10/20 02:29:13;;;;;;;4.57;3.28;;;8.40;99.90;;;;;;5064632;28;20224;-74
2022/10/20 02:31:41;;;;;;;4.70;3.10;;;8.40;99.90;;;;;;5057568;28;20206;-72
2022/10/20 02:34:09;;;;;;;5.97;3.08;;;8.30;99.90;;;;;;5068905;28;20215;-71
2022/10/20 02:36:39;;;;;;;4.53;3.20;;;8.30;99.90;;;;;;5053750;28;20599;-72
2022/10/20 02:39:06;;;;;;;4.18;3.78;;;8.20;99.90;;;;;;5054311;28;20217;-74
2022/10/20 02:41:34;;;;;;;7.85;3.88;;;8.10;99.90;;;;;;5053132;28;20259;-75
2022/10/20 02:44:01;;;;;;;4.95;3.20;;;8.10;99.90;;;;;;5046732;28;20227;-72
2022/10/20 02:46:29;;;;;;;7.50;3.50;;;8.00;99.90;;;;;;5055762;28;20287;-72
2022/10/20 02:48:56;;;;;;;5.13;3.05;;;8.00;99.90;;;;;;5055146;28;20270;-72
2022/10/20 02:51:23;;;;;;;7.53;3.90;;;7.90;99.90;;;;;;5055398;28;20220;-73
2022/10/20 02:53:50;;;;;;;4.50;3.80;;;7.90;99.90;;;;;;5055737;28;20249;-76
2022/10/20 02:56:17;;;;;;;4.03;3.05;;;7.90;99.90;;;;;;5049980;28;20640;-74
2022/10/20 02:58:44;;;;;;;8.93;3.75;;;7.90;99.90;;;;;;5054580;28;20215;-72
2022/10/20 03:01:11;;;;;;;9.77;3.28;;;7.80;99.90;;;;;;5048600;28;20207;-72
2022/10/20 03:03:39;;;;;;;6.15;4.97;;;7.80;99.90;;;;;;5053802;28;20238;-71
2022/10/20 03:06:11;;;;;;;7.28;4.15;;;7.80;99.90;;;;;;5055004;28;20201;-74
2022/10/20 03:08:38;;;;;;;4.82;4.05;;;7.80;99.90;;;;;;5057834;28;20258;-73
2022/10/20 03:11:06;;;;;;;6.25;4.53;;;7.90;99.90;;;;;;5073974;28;20217;-72
2022/10/20 03:13:33;;;;;;;8.35;3.60;;;7.80;99.90;;;;;;5062612;28;20198;-74
2022/10/20 03:16:01;;;;;;;5.22;3.80;;;7.80;99.90;;;;;;5052350;28;20609;-75
2022/10/20 03:18:28;;;;;;;6.70;3.80;;;7.80;99.90;;;;;;5051748;28;20364;-73
2022/10/20 03:20:57;;;;;;;5.53;4.13;;;7.80;99.90;;;;;;5054934;28;20229;-74
2022/10/20 03:23:24;;;;;;;4.85;3.85;;;7.80;99.90;;;;;;5042590;28;20199;-74
2022/10/20 03:25:50;;;;;;;7.32;4.03;;;7.80;99.90;;;;;;5053897;28;20215;-72
2022/10/20 03:28:18;;;;;;;8.90;4.35;;;7.90;99.90;;;;;;5048918;28;20329;-74
2022/10/20 03:30:45;;;;;;;9.52;4.25;;;7.90;99.90;;;;;;5052642;28;20699;-73
2022/10/20 03:33:12;;;;;;;9.50;5.38;;;7.80;99.90;;;;;;5053869;28;20216;-72
2022/10/20 03:35:39;;;;;;;13.90;4.70;;;7.90;99.90;;;;;;5053374;28;20285;-73
2022/10/20 03:38:07;;;;;;;9.40;4.20;;;7.90;99.90;;;;;;5050871;28;20232;-74
2022/10/20 03:40:34;;;;;;;5.05;3.60;;;7.90;99.90;;;;;;5049411;28;20198;-72
2022/10/20 03:43:01;;;;;;;6.03;4.10;;;7.90;99.90;;;;;;5043867;28;20268;-75
2022/10/20 03:45:28;;;;;;;6.30;4.03;;;8.00;99.90;;;;;;5050755;28;20216;-74
2022/10/20 03:47:55;;;;;;;7.40;4.45;;;8.00;99.90;;;;;;5054303;28;20672;-71
2022/10/20 03:50:22;;;;;;;4.30;4.00;;;8.00;99.90;;;;;;5054789;28;20294;-74
2022/10/20 03:52:51;;;;;;;5.95;4.30;;;8.00;99.90;;;;;;5050210;28;20275;-72
2022/10/20 03:55:20;;;;;;;9.80;3.55;;;8.10;99.90;;;;;;5051424;28;20286;-74
2022/10/20 03:57:48;;;;;;;5.80;3.72;;;8.10;99.90;;;;;;5049218;28;20247;-74
2022/10/20 04:00:15;;;;;;;6.30;3.90;;;8.10;99.90;;;;;;5049799;28;20605;-72
2022/10/20 04:02:45;;;;;;;6.38;4.70;;;8.10;99.90;;;;;;5053395;28;20564;-74
2022/10/20 04:05:14;;;;;;;5.43;4.00;;;8.10;99.90;;;;;;5054084;28;20246;-72
2022/10/20 04:07:43;;;;;;;13.52;5.10;;;8.10;99.90;;;;;;5050048;28;20221;-74
2022/10/20 04:10:12;;;;;;;4.82;3.92;;;8.10;99.90;;;;;;5049963;28;20232;-72
2022/10/20 04:12:40;;;;;;;6.22;3.75;;;8.10;99.90;;;;;;5055026;28;20609;-73
2022/10/20 04:15:08;;;;;;;8.93;4.40;;;8.10;99.90;;;;;;5052724;28;20294;-74
2022/10/20 04:17:37;;;;;;;8.75;4.43;;;8.10;99.90;;;;;;5064798;28;20226;-74
2022/10/20 04:20:05;;;;;;;6.93;4.20;;;8.10;99.90;;;;;;5064422;28;20227;-73
2022/10/20 04:22:35;;;;;;;5.90;3.90;;;8.10;99.90;;;;;;5056949;28;20609;-75
2022/10/20 04:25:04;;;;;;;9.27;4.90;;;8.10;99.90;;;;;;5054601;28;20218;-72
2022/10/20 04:27:31;;;;;;;4.88;4.15;;;8.10;99.90;;;;;;5062142;28;20227;-72
2022/10/20 04:30:00;;;;;;;4.47;4.07;;;8.10;99.90;;;;;;5062938;28;20242;-70
2022/10/20 04:32:27;;;;;;;10.38;4.47;;;8.10;99.90;;;;;;5066595;28;20210;-73
2022/10/20 04:34:55;;;;;;;7.13;4.25;;;8.10;99.90;;;;;;5063241;28;20203;-70
2022/10/20 04:37:21;;;;;;;7.10;4.38;;;8.10;99.90;;;;;;5059837;28;20278;-71
2022/10/20 04:39:50;;;;;;;7.18;3.97;;;8.10;99.90;;;;;;5055534;28;20203;-73
2022/10/20 04:42:17;;;;;;;7.72;4.50;;;8.10;99.90;;;;;;5052923;28;20206;-72
2022/10/20 04:44:44;;;;;;;10.20;4.55;;;8.00;99.90;;;;;;5051542;28;20752;-74
2022/10/20 04:47:13;;;;;;;6.88;3.70;;;8.10;99.90;;;;;;5052515;28;20213;-73
2022/10/20 04:49:40;;;;;;;6.45;3.60;;;8.10;99.90;;;;;;5051501;28;20305;-74
2022/10/20 04:52:08;;;;;;;7.00;4.65;;;8.00;99.90;;;;;;5052480;28;20594;-75
2022/10/20 04:54:35;;;;;;;8.32;4.00;;;8.10;99.90;;;;;;5053331;28;20198;-74
2022/10/20 04:57:03;;;;;;;4.70;3.75;;;8.10;99.90;;;;;;5051283;28;20294;-71
2022/10/20 04:59:30;;;;;;;4.38;3.90;;;8.10;99.90;;;;;;5052669;28;20191;-72
2022/10/20 05:01:56;;;;;;;4.97;3.40;;;8.10;99.90;;;;;;5051230;28;20207;-72
2022/10/20 05:04:25;;;;;;;7.07;4.13;;;8.10;99.90;;;;;;5047228;28;20678;-74
2022/10/20 05:06:52;;;;;;;5.25;4.07;;;8.00;99.90;;;;;;5050271;28;20199;-73
2022/10/20 05:09:19;;;;;;;4.20;3.58;;;8.00;99.90;;;;;;5052382;28;20223;-74
2022/10/20 05:11:46;;;;;;;6.45;4.68;;;8.00;99.90;;;;;;5052681;28;20292;-74
2022/10/20 05:14:13;;;;;;;9.38;4.13;;;8.00;99.90;;;;;;5061579;28;20289;-68
2022/10/20 05:16:40;;;;;;;6.18;4.60;;;8.10;99.90;;;;;;5055605;28;20363;-68
2022/10/20 05:19:07;;;;;;;4.60;3.95;;;8.10;99.90;;;;;;5059882;28;20273;-69
2022/10/20 05:21:35;;;;;;;7.43;4.07;;;8.10;99.90;;;;;;5057732;28;20227;-68
2022/10/20 05:24:05;;;;;;;4.70;4.18;;;8.10;99.90;;;;;;5057386;28;20230;-69
2022/10/20 05:26:36;;;;;;;3.83;3.42;;;8.10;99.90;;;;;;5059654;28;20711;-70
2022/10/20 05:29:04;;;;;;;7.10;4.28;;;8.10;99.90;;;;;;5062556;28;20245;-70
2022/10/20 05:31:31;;;;;;;4.97;3.47;;;8.10;99.90;;;;;;5060183;28;20234;-69
2022/10/20 05:33:58;;;;;;;6.82;3.85;;;8.10;99.90;;;;;;5056011;28;20281;-73
2022/10/20 05:36:27;;;;;;;6.70;3.97;;;8.10;99.90;;;;;;5058141;28;20722;-74
2022/10/20 05:38:56;;;;;;;8.43;3.55;;;8.10;99.90;;;;;;5056830;28;20615;-74
2022/10/20 05:41:25;;;;;;;4.57;3.95;;;8.10;99.90;;;;;;5063360;28;20236;-72
2022/10/20 05:43:53;;;;;;;6.15;4.00;;;8.10;99.90;;;;;;5055115;28;20287;-73
2022/10/20 05:46:21;;;;;;;6.53;4.78;;;8.10;99.90;;;;;;5052554;28;20266;-73
2022/10/20 05:48:48;;;;;;;5.60;3.50;;;8.10;99.90;;;;;;5062411;28;20330;-70
2022/10/20 05:51:17;;;;;;;6.70;5.10;;;8.10;99.90;;;;;;5059404;28;20242;-71
2022/10/20 05:53:45;;;;;;;4.88;3.33;;;8.00;99.90;;;;;;5054640;28;20199;-72
2022/10/20 05:56:16;;;;;;;12.07;3.92;;;8.00;99.90;;;;;;5051702;28;20199;-72
2022/10/20 05:58:46;;;;;;;8.98;3.95;;;8.10;99.90;;;;;;5053503;28;20325;-73
2022/10/20 06:01:16;;;;;;;4.40;3.67;;;8.00;99.90;;;;;;5053265;28;20204;-72
2022/10/20 06:03:46;;;;;;;4.03;3.63;;;8.00;99.90;;;;;;5055600;28;20572;-73
2022/10/20 06:06:13;;;;;;;8.32;3.42;;;8.00;99.90;;;;;;5055011;28;21124;-71
2022/10/20 06:08:40;;;;;;;5.03;4.00;;;8.00;99.90;;;;;;5052702;28;20278;-75
2022/10/20 06:11:11;;;;;;;4.05;3.63;;;8.00;99.90;;;;;;5053479;28;20261;-72
2022/10/20 06:13:39;;;;;;;5.57;3.40;;;8.00;99.90;;;;;;5052522;28;20689;-71
2022/10/20 06:16:09;;;;;;;6.50;3.30;;;8.00;99.90;;;;;;5057940;28;20253;-73
2022/10/20 06:18:37;;;;;;;11.15;3.67;;;8.00;99.90;;;;;;5050506;28;20220;-72
2022/10/20 06:21:07;;;;;;;4.07;3.33;;;8.10;99.90;;;;;;5063164;28;20270;-72
2022/10/20 06:23:34;;;;;;;9.05;4.43;;;8.10;99.90;;;;;;5059445;28;20206;-71
2022/10/20 06:26:05;;;;;;;11.88;3.70;;;8.10;99.90;;;;;;5056065;28;20267;-73
2022/10/20 06:28:33;;;;;;;5.53;3.80;;;8.20;99.90;;;;;;5056292;28;20269;-73
2022/10/20 06:31:10;;;;;;;14.60;4.18;;;8.30;99.90;;;;;;5055141;28;20295;-75
2022/10/20 06:33:37;;;;;;;11.00;3.63;;;8.40;99.90;;;;;;5054220;28;20310;-72
2022/10/20 06:36:05;;;;;;;5.13;4.15;;;8.40;99.90;;;;;;5053905;28;20291;-72
2022/10/20 06:38:32;;;;;;;7.55;4.05;;;8.50;99.90;;;;;;5054169;28;20717;-78
2022/10/20 06:41:02;;;;;;;5.47;3.97;;;8.50;99.90;;;;;;5054543;28;20191;-74
2022/10/20 06:43:28;;;;;;;6.13;4.05;;;8.60;99.90;;;;;;5058487;28;20207;-77
2022/10/20 06:45:58;;;;;;;8.07;4.38;;;8.70;99.90;;;;;;5058767;28;20196;-77
2022/10/20 06:48:26;;;;;;;9.25;3.75;;;8.70;99.90;;;;;;5059710;28;20786;-74
2022/10/20 06:50:56;;;;;;;7.45;3.97;;;8.80;99.90;;;;;;5053799;28;20211;-75
2022/10/20 06:53:23;;;;;;;4.70;4.00;;;8.90;99.90;;;;;;5061373;28;20238;-76
2022/10/20 06:55:57;;;;;;;4.47;3.50;;;9.00;99.90;;;;;;5051765;28;20210;-75
2022/10/20 06:58:24;;;;;;;3.55;3.22;;;9.20;99.90;;;;;;5054820;28;20263;-79
2022/10/20 07:00:58;;;;;;;7.15;4.00;;;9.40;99.90;;;;;;5058355;28;20295;-76
2022/10/20 07:03:27;;;;;;;7.18;3.85;;;9.60;99.90;;;;;;5060870;28;20214;-77
2022/10/20 07:05:54;;;;;;;7.28;3.55;;;9.70;99.90;;;;;;5047962;28;20206;-78
2022/10/20 07:08:21;;;;;;;5.82;4.00;;;9.90;99.90;;;;;;5049797;28;20250;-78
2022/10/20 07:10:58;;;;;;;6.40;4.35;;;10.00;99.90;;;;;;5041641;28;20296;-77
2022/10/20 07:13:25;;;;;;;10.30;3.75;;;10.10;99.90;;;;;;5053469;28;20208;-75
2022/10/20 07:15:53;;;;;;;5.65;4.05;;;10.20;99.90;;;;;;5050941;28;20204;-77
2022/10/20 07:18:20;;;;;;;7.68;3.35;;;10.40;99.90;;;;;;5055461;28;20224;-74
2022/10/20 07:20:50;;;;;;;5.30;3.28;;;10.50;99.90;;;;;;5053983;28;20227;-77
2022/10/20 07:23:17;;;;;;;6.53;3.42;;;10.60;99.90;;;;;;5053643;28;20241;-76
2022/10/20 07:25:44;;;;;;;8.60;3.90;;;10.80;99.90;;;;;;5049426;28;20258;-77
2022/10/20 07:28:12;;;;;;;6.07;3.75;;;10.60;99.90;;;;;;5054817;28;20259;-74
2022/10/20 07:30:39;;;;;;;6.10;3.70;;;10.50;99.90;;;;;;5045429;28;20285;-73
2022/10/20 07:33:07;;;;;;;4.35;3.70;;;10.50;99.90;;;;;;5051031;28;20218;-75
2022/10/20 07:35:33;;;;;;;3.17;2.67;;;10.80;99.90;;;;;;5050380;28;20229;-77
2022/10/20 07:38:02;;;;;;;5.15;3.65;;;11.10;99.90;;;;;;5043259;28;20222;-71
2022/10/20 07:40:30;;;;;;;6.07;4.00;;;11.40;99.90;;;;;;5046105;28;20203;-72
2022/10/20 07:42:56;;;;;;;5.50;3.40;;;11.60;99.90;;;;;;5056714;28;20237;-71
2022/10/20 07:45:23;;;;;;;5.97;3.92;;;11.80;99.90;;;;;;5051293;28;20196;-71
2022/10/20 07:47:52;;;;;;;7.63;3.95;;;12.00;99.90;;;;;;5053975;28;20254;-71
2022/10/20 07:50:19;;;;;;;7.53;3.80;;;12.10;99.90;;;;;;5057313;28;20377;-71
2022/10/20 07:52:51;;;;;;;7.13;4.05;;;12.50;99.90;;;;;;5052941;28;20203;-70
2022/10/20 07:55:19;;;;;;;10.57;4.30;;;12.90;99.90;;;;;;5047170;28;20203;-70
2022/10/20 07:57:48;;;;;;;10.65;4.15;;;13.10;99.90;;;;;;5047395;28;20219;-70
2022/10/20 08:00:15;;;;;;;11.30;4.43;;;13.40;99.90;;;;;;5045857;28;20204;-71
2022/10/20 08:02:44;;;;;;;7.75;4.35;;;13.60;99.90;;;;;;5044923;28;20243;-71
2022/10/20 08:05:11;;;;;;;6.63;4.20;;;13.80;99.90;;;;;;5053323;28;20197;-71
2022/10/20 08:07:40;;;;;;;6.65;4.00;;;14.20;99.90;;;;;;5045210;28;20218;-71
2022/10/20 08:10:08;;;;;;;6.63;4.38;;;14.50;99.90;;;;;;5060010;28;20211;-71
2022/10/20 08:12:37;;;;;;;9.77;4.85;;;14.50;99.90;;;;;;5050026;28;20245;-70
2022/10/20 08:15:04;;;;;;;4.88;4.15;;;14.40;99.90;;;;;;5047622;28;20196;-71
2022/10/20 08:17:31;;;;;;;14.18;4.82;;;14.50;99.90;;;;;;5052481;28;20313;-72
2022/10/20 08:19:58;;;;;;;6.95;5.20;;;14.50;99.90;;;;;;5051895;28;20224;-71
2022/10/20 08:22:25;;;;;;;10.15;4.03;;;14.30;99.90;;;;;;5052486;28;20227;-71
2022/10/20 08:24:52;;;;;;;6.65;4.00;;;14.60;99.90;;;;;;5052694;28;20271;-71
2022/10/20 08:27:20;;;;;;;6.72;4.50;;;14.70;99.80;;;;;;5050889;28;20254;-70
2022/10/20 08:29:48;;;;;;;4.15;3.45;;;14.80;99.90;;;;;;5045871;28;20621;-71
2022/10/20 08:32:15;;;;;;;4.55;3.95;;;15.00;99.20;;;;;;5048755;28;20564;-71
2022/10/20 08:34:42;;;;;;;5.27;3.40;;;15.10;99.00;;;;;;5042916;28;20290;-72
2022/10/20 08:37:09;;;;;;;16.27;4.60;;;15.50;98.50;;;;;;5046897;28;20448;-70
2022/10/20 08:39:36;;;;;;;10.50;4.00;;;15.40;98.00;;;;;;5048270;28;20459;-71
2022/10/20 08:42:04;;;;;;;5.80;5.10;;;15.10;98.60;;;;;;5046243;28;20451;-71
2022/10/20 08:44:34;;;;;;;8.47;3.90;;;14.70;99.50;;;;;;5049085;28;20444;-71
2022/10/20 08:47:05;;;;;;;9.45;4.35;;;14.60;99.40;;;;;;5050061;28;20444;-73
2022/10/20 08:49:35;;;;;;;4.70;4.20;;;14.70;99.90;;;;;;5050107;28;20625;-73
2022/10/20 08:52:02;;;;;;;6.40;4.10;;;15.00;99.90;;;;;;5057563;28;20449;-72
2022/10/20 08:54:29;;;;;;;7.47;3.97;;;15.70;97.40;;;;;;5064601;28;20496;-72
2022/10/20 08:56:56;;;;;;;5.53;4.53;;;16.60;96.10;;;;;;5050898;28;20453;-71
2022/10/20 08:59:29;;;;;;;6.00;3.73;;;17.10;94.40;;;;;;5042195;28;20461;-72
2022/10/20 09:01:57;;;;;;;6.63;4.90;;;17.40;93.00;;;;;;5040272;28;20462;-71
2022/10/20 09:04:32;;;;;;;6.90;4.77;;;16.90;92.90;;;;;;5041585;28;20443;-71
2022/10/20 09:07:04;;;;;;;6.07;4.33;;;16.10;94.10;;;;;;5039159;28;20473;-68
2022/10/20 09:09:33;;;;;;;5.00;4.50;;;16.10;95.10;;;;;;5043088;28;20449;-68
2022/10/20 09:12:04;;;;;;;5.13;3.77;;;16.20;95.00;;;;;;5042241;28;20456;-69
2022/10/20 09:14:35;;;;;;;6.60;4.10;;;16.90;94.10;;;;;;5037245;28;20470;-70
2022/10/20 09:17:03;;;;;;;5.60;4.53;;;17.10;93.50;;;;;;5038361;28;20522;-69
2022/10/20 09:19:31;;;;;;;6.00;4.13;;;17.40;92.60;;;;;;5036102;28;20964;-69
2022/10/20 09:22:04;;;;;;;4.90;3.80;;;17.20;92.70;;;;;;5043317;28;20478;-68
2022/10/20 09:24:31;;;;;;;4.87;4.13;;;16.60;93.10;;;;;;5045502;28;20515;-69
2022/10/20 09:27:22;;;;;;;8.93;5.00;;;15.90;94.40;;;;;;5051397;28;20433;-69
2022/10/20 09:29:49;;;;;;;6.15;5.50;;;15.30;95.90;;;;;;5042347;28;21017;-70
2022/10/20 09:32:31;;;;;;;6.80;5.40;;;15.00;97.10;;;;;;5044698;28;20593;-69
2022/10/20 09:35:12;;;;;;;6.82;5.22;;;14.50;98.80;;;;;;5045441;28;20207;-68
2022/10/20 09:37:39;;;;;;;8.10;6.70;;;14.10;99.90;;;;;;5048256;28;20258;-70
2022/10/20 09:40:15;;;;;;;9.32;5.20;;;13.60;99.90;;;;;;5037381;28;20209;-71
2022/10/20 09:42:49;;;;;;;9.55;5.32;;;13.50;99.90;;;;;;5044783;28;20357;-70
2022/10/20 09:45:21;;;;;;;7.05;5.25;;;13.30;99.90;;;;;;5049056;28;20214;-72
2022/10/20 09:47:52;;;;;;;8.63;4.97;;;13.20;99.90;;;;;;5035071;28;20235;-71
2022/10/20 09:50:25;;;;;;;6.47;5.30;;;12.90;99.90;;;;;;5056364;28;20226;-71
2022/10/20 09:52:53;;;;;;;7.18;5.75;;;13.00;99.90;;;;;;5049905;28;20540;-70
2022/10/20 09:55:27;;;;;;;8.48;5.70;;;13.20;99.90;;;;;;5053161;28;20289;-70
2022/10/20 09:57:55;;;;;;;5.78;5.25;;;13.80;99.90;;;;;;5060953;28;20292;-69
2022/10/20 10:00:29;;;;;;;10.35;5.25;;;14.10;99.90;;;;;;5057249;28;20200;-71
2022/10/20 10:03:23;;;;;;;7.65;6.15;;;14.20;99.90;;;;;;5056999;28;20260;-69
2022/10/20 10:05:53;;;;;;;8.85;5.55;;;14.10;99.90;;;;;;5033461;28;20298;-70
2022/10/20 10:08:22;;;;;;;7.70;5.60;;;14.00;99.90;;;;;;5055825;28;20338;-71
2022/10/20 10:10:59;;;;;;;8.15;5.03;;;14.20;99.90;;;;;;5042535;28;20303;-70
2022/10/20 10:13:29;;;;;;;6.10;5.13;;;14.50;99.90;;;;;;5060678;28;20725;-71
2022/10/20 10:16:06;;;;;;;11.88;5.65;;;14.80;99.90;;;;;;5044816;28;20287;-71
2022/10/20 10:18:35;;;;;;;7.13;5.47;;;15.00;99.90;;;;;;5049716;28;20303;-70
2022/10/20 10:21:06;;;;;;;7.20;4.70;;;15.30;99.80;;;;;;5044746;28;20192;-70
2022/10/20 10:23:39;;;;;;;7.07;5.45;;;15.40;99.20;;;;;;5054905;28;20638;-70
2022/10/20 10:26:48;;;;;;;5.90;5.22;;;15.50;98.90;;;;;;5055740;28;20570;-69
2022/10/20 10:29:20;;;;;;;9.20;6.57;;;15.70;98.20;;;;;;5048230;28;20322;-69
2022/10/20 10:31:56;;;;;;;11.15;5.70;;;15.60;97.90;;;;;;5045312;28;20677;-71
2022/10/20 10:34:37;;;;;;;6.28;5.68;;;15.50;98.10;;;;;;5051541;28;20566;-71
2022/10/20 10:37:04;;;;;;;9.48;7.05;;;15.20;98.80;;;;;;5047799;28;20203;-71
2022/10/20 10:39:35;;;;;;;8.43;6.18;;;15.00;99.40;;;;;;5051305;28;20215;-72
2022/10/20 10:42:37;;;;;;;8.38;6.50;;;14.90;99.70;;;;;;5052875;28;20286;-70
2022/10/20 10:45:18;;;;;;;9.60;6.53;;;14.70;99.90;;;;;;5046864;28;20366;-70
2022/10/20 10:48:20;;;;;;;8.23;6.55;;;14.40;99.90;;;;;;5051790;28;20250;-72
2022/10/20 10:50:51;;;;;;;10.23;6.32;;;14.50;99.90;;;;;;5043475;28;20266;-71
2022/10/20 10:53:31;;;;;;;7.15;6.00;;;14.60;99.90;;;;;;5048430;28;20195;-71
2022/10/20 10:56:08;;;;;;;8.77;7.00;;;14.60;99.90;;;;;;5047673;28;20246;-71
2022/10/20 10:58:46;;;;;;;13.20;6.88;;;14.70;99.90;;;;;;5050697;28;20234;-71
2022/10/20 11:01:41;;;;;;;13.05;7.53;;;14.70;99.90;;;;;;5050780;28;20274;-70
2022/10/20 11:04:36;;;;;;;12.05;7.35;;;14.60;99.90;;;;;;5051217;28;20287;-71
2022/10/20 11:07:14;;;;;;;15.00;6.93;;;14.70;99.90;;;;;;5050887;28;20222;-75
2022/10/20 11:09:52;;;;;;;7.93;7.00;;;14.60;99.90;;;;;;5048930;28;20204;-71
2022/10/20 11:12:29;;;;;;;12.05;6.30;;;14.50;99.90;;;;;;5045178;28;20242;-71
2022/10/20 11:15:12;;;;;;;10.20;6.40;;;14.50;99.90;;;;;;5042385;28;20279;-72
2022/10/20 11:17:53;;;;;;;9.77;7.13;;;14.60;99.90;;;;;;5046101;28;20306;-72
2022/10/20 11:20:27;;;;;;;6.97;5.78;;;14.70;99.90;;;;;;5047712;28;20216;-70
2022/10/20 11:23:16;;;;;;;13.00;7.18;;;14.70;99.90;;;;;;5053855;28;20232;-71
2022/10/20 11:25:51;;;;;;;8.27;6.53;;;14.60;99.90;;;;;;5045448;28;20223;-71
2022/10/20 11:28:30;;;;;;;7.50;6.40;;;14.60;99.90;;;;;;5054498;28;20349;-71
2022/10/20 11:30:59;;;;;;;7.80;5.95;;;14.80;99.90;;;;;;5050977;28;20219;-69
2022/10/20 11:33:35;;;;;;;13.05;6.57;;;14.90;99.90;;;;;;5045170;28;20201;-72
2022/10/20 11:36:08;;;;;;;8.13;6.22;;;15.10;99.90;;;;;;5044293;28;20232;-70
2022/10/20 11:38:41;;;;;;;7.30;6.60;;;15.10;99.90;;;;;;5054040;28;20282;-70
2022/10/20 11:41:15;;;;;;;9.60;6.25;;;15.10;99.90;;;;;;5053511;28;20318;-69
2022/10/20 11:43:49;;;;;;;7.18;5.82;;;15.00;99.90;;;;;;5053420;28;20270;-71
2022/10/20 11:46:23;;;;;;;6.88;5.50;;;14.80;99.90;;;;;;5057100;28;20199;-70
2022/10/20 11:48:53;;;;;;;6.35;5.75;;;14.70;99.90;;;;;;5065777;28;20599;-71
2022/10/20 11:51:45;;;;;;;7.40;6.63;;;14.80;99.90;;;;;;5058341;28;20219;-72
2022/10/20 11:54:51;;;;;;;7.30;5.05;;;14.90;99.90;;;;;;5054438;28;20281;-72
2022/10/20 11:57:28;;;;;;;7.22;6.53;;;15.00;99.90;;;;;;5053323;28;20213;-71
2022/10/20 12:00:13;;;;;;;7.47;6.63;;;15.00;99.90;;;;;;5049784;28;20287;-71
2022/10/20 12:03:13;;;;;;;10.55;6.80;;;15.00;99.90;;;;;;5052919;28;20305;-71
2022/10/20 12:06:05;;;;;;;7.50;5.78;;;15.00;99.90;;;;;;5048779;28;20284;-72
2022/10/20 12:08:52;;;;;;;8.25;6.60;;;15.10;99.90;;;;;;5043394;28;20254;-70
2022/10/20 12:11:25;;;;;;;7.80;7.00;;;15.10;99.90;;;;;;5054132;28;20322;-73
2022/10/20 12:14:01;;;;;;;6.63;5.93;;;15.00;99.90;;;;;;5054483;28;20229;-71
2022/10/20 12:17:05;;;;;;;8.93;6.72;;;14.80;99.90;;;;;;5048800;28;20203;-72
2022/10/20 12:19:34;;;;;;;7.43;5.60;;;14.80;99.90;;;;;;5055585;28;20692;-71
2022/10/20 12:22:05;;;;;;;11.20;6.70;;;14.70;99.90;;;;;;5054785;28;20206;-71
2022/10/20 12:24:34;;;;;;;7.32;5.95;;;14.70;99.90;;;;;;5051582;28;20201;-71
2022/10/20 12:27:18;;;;;;;9.35;6.63;;;14.80;99.90;;;;;;5058271;28;20271;-72
2022/10/20 12:30:06;;;;;;;9.77;6.22;;;14.90;99.90;;;;;;5052385;28;20681;-71
2022/10/20 12:32:56;;;;;;;13.10;6.40;;;15.00;99.90;;;;;;5046690;28;20678;-70
2022/10/20 12:36:04;;;;;;;8.93;6.80;;;15.10;99.90;;;;;;5053978;28;20266;-71
2022/10/20 12:38:33;;;;;;;6.22;5.63;;;15.00;99.90;;;;;;5050691;28;20263;-71
2022/10/20 12:41:02;;;;;;;7.18;6.22;;;15.10;99.90;;;;;;5052171;28;20543;-72
2022/10/20 12:43:33;;;;;;;6.45;5.60;;;15.10;99.90;;;;;;5052507;28;20214;-71
2022/10/20 12:46:08;;;;;;;6.50;5.60;;;15.10;99.90;;;;;;5052028;28;20226;-71
2022/10/20 12:48:42;;;;;;;9.95;7.07;;;15.10;99.90;;;;;;5050169;28;20311;-73
2022/10/20 12:51:18;;;;;;;15.73;6.03;;;15.10;99.90;;;;;;5052062;28;20685;-73
2022/10/20 12:53:55;;;;;;;9.48;7.05;;;15.00;99.90;;;;;;5051746;28;20448;-72
2022/10/20 12:56:23;;;;;;;9.25;6.45;;;14.90;99.90;;;;;;5047725;28;20211;-71
2022/10/20 12:59:23;;;;;;;7.95;6.65;;;14.90;99.90;;;;;;5053124;28;20228;-70
2022/10/20 13:02:38;;;;;;;5.90;5.30;;;15.00;99.90;;;;;;5046094;28;20228;-70
2022/10/20 13:05:41;;;;;;;5.70;5.10;;;14.90;99.90;;;;;;5047887;28;20246;-70
2022/10/20 13:08:22;;;;;;;6.15;5.40;;;14.80;99.90;;;;;;5056965;28;20886;-70
2022/10/20 13:10:52;;;;;;;8.00;5.95;;;14.70;99.90;;;;;;5052807;28;20253;-72
2022/10/20 13:13:47;;;;;;;7.80;5.85;;;14.60;99.90;;;;;;5054340;28;20210;-71
2022/10/20 13:16:21;;;;;;;8.70;6.00;;;14.60;99.90;;;;;;5044167;28;20287;-71